createdAt,value
2023-10-24T00:03:35.894Z,16.4
2023-10-24T00:09:11.386Z,16.4
2023-10-24T00:14:46.827Z,16.4
2023-10-24T00:20:22.701Z,16.4
2023-10-24T00:25:58.392Z,16.4
2023-10-24T00:31:34.132Z,16.3
2023-10-24T00:37:11.210Z,16.3
2023-10-24T00:42:46.758Z,16.3
2023-10-24T00:48:22.214Z,16.2
2023-10-24T00:53:57.755Z,16.2
2023-10-24T00:59:33.145Z,16.2
2023-10-24T01:05:08.344Z,16.2
2023-10-24T01:10:44.338Z,16.1
2023-10-24T01:16:20.073Z,16.1
2023-10-24T01:21:57.467Z,16.1
2023-10-24T01:27:33.141Z,16.1
2023-10-24T01:33:08.770Z,16.1
2023-10-24T01:38:44.825Z,16.1
2023-10-24T01:44:20.670Z,16
2023-10-24T01:49:55.573Z,16
2023-10-24T01:55:30.789Z,16
2023-10-24T02:01:06.875Z,16
2023-10-24T02:06:44.336Z,15.9
2023-10-24T02:12:19.661Z,15.9
2023-10-24T02:17:55.546Z,15.9
2023-10-24T02:23:31.228Z,15.9
2023-10-24T02:29:06.514Z,15.9
2023-10-24T02:34:42.537Z,15.8
2023-10-24T02:40:19.815Z,15.8
2023-10-24T02:45:55.693Z,15.8
2023-10-24T02:51:31.930Z,15.8
2023-10-24T02:57:08.028Z,15.8
2023-10-24T03:02:43.148Z,15.7
2023-10-24T03:08:19.070Z,15.7
2023-10-24T03:13:54.332Z,15.7
2023-10-24T03:19:30.249Z,15.7
2023-10-24T03:25:06.830Z,15.7
2023-10-24T03:30:42.346Z,15.6
2023-10-24T03:36:18.371Z,15.6
2023-10-24T03:41:54.279Z,15.6
2023-10-24T03:47:30.646Z,15.6
2023-10-24T03:53:06.976Z,15.6
2023-10-24T03:58:42.883Z,15.5
2023-10-24T04:04:18.654Z,15.5
2023-10-24T04:09:54.248Z,15.5
2023-10-24T04:15:29.603Z,15.5
2023-10-24T04:21:05.192Z,15.5
2023-10-24T04:26:41.010Z,15.4
2023-10-24T04:32:16.813Z,15.4
2023-10-24T04:37:51.965Z,15.4
2023-10-24T04:43:27.699Z,15.4
2023-10-24T04:49:03.686Z,15.3
2023-10-24T04:54:38.709Z,15.3
2023-10-24T05:00:15.852Z,15.3
2023-10-24T05:05:51.311Z,15.2
2023-10-24T05:11:26.536Z,15.1
2023-10-24T05:17:01.415Z,15
2023-10-24T05:22:38.761Z,15
2023-10-24T05:28:15.027Z,15
2023-10-24T05:33:51.209Z,15
2023-10-24T05:39:27.360Z,15
2023-10-24T05:45:02.678Z,14.9
2023-10-24T05:50:38.838Z,14.9
2023-10-24T05:56:14.969Z,14.8
2023-10-24T06:01:51.898Z,14.8
2023-10-24T06:07:28.882Z,14.7
2023-10-24T06:13:04.989Z,14.7
2023-10-24T06:18:39.920Z,14.7
2023-10-24T06:24:16.003Z,14.7
2023-10-24T06:29:51.854Z,14.7
2023-10-24T06:35:27.707Z,14.7
2023-10-24T06:41:03.119Z,14.7
2023-10-24T06:46:38.620Z,14.7
2023-10-24T06:52:14.477Z,14.7
2023-10-24T06:57:49.741Z,14.6
2023-10-24T07:03:25.002Z,14
2023-10-24T07:09:01.944Z,13.2
2023-10-24T07:14:37.231Z,13.2
2023-10-24T07:20:12.973Z,13.4
2023-10-24T07:25:48.842Z,13.7
2023-10-24T07:31:25.508Z,13.8
2023-10-24T07:37:02.150Z,13.8
2023-10-24T07:42:37.613Z,14.2
2023-10-24T07:48:13.185Z,14.4
2023-10-24T07:53:50.201Z,14.7
2023-10-24T07:59:25.383Z,15.1
2023-10-24T08:05:00.770Z,14.7
2023-10-24T08:10:37.967Z,14.9
2023-10-24T08:16:13.837Z,15
2023-10-24T08:21:49.795Z,15.4
2023-10-24T08:27:25.749Z,15.1
2023-10-24T08:33:01.306Z,15.1
2023-10-24T08:38:38.063Z,14.6
2023-10-24T08:44:13.493Z,14.6
2023-10-24T08:49:48.868Z,15
2023-10-24T08:55:25.784Z,15.3
2023-10-24T09:01:01.963Z,15.4
2023-10-24T09:06:38.818Z,15.6
2023-10-24T09:12:14.573Z,15.7
2023-10-24T09:17:51.094Z,15.9
2023-10-24T09:23:29.329Z,16.1
2023-10-24T09:29:04.931Z,16.1
2023-10-24T09:34:41.635Z,16.1
2023-10-24T09:40:18.337Z,16.3
2023-10-24T09:45:53.546Z,16.5
2023-10-24T09:51:29.972Z,16.8
2023-10-24T09:57:05.623Z,16.8
2023-10-24T10:02:40.597Z,17
2023-10-24T10:08:19.104Z,17.3
2023-10-24T10:13:55.155Z,17.4
2023-10-24T10:19:30.902Z,17.2
2023-10-24T10:25:07.057Z,18.1
2023-10-24T10:30:46.968Z,18.6
2023-10-24T10:38:50.916Z,18.6
2023-10-24T10:44:26.190Z,19.4
2023-10-24T10:50:01.350Z,19.6
2023-10-24T10:55:37.292Z,19
2023-10-24T11:01:13.033Z,18.6
2023-10-24T11:06:48.794Z,18.5
2023-10-24T11:12:24.402Z,18.5
2023-10-24T11:17:59.795Z,18.1
2023-10-24T11:23:36.159Z,18.2
2023-10-24T11:29:11.223Z,18.3
2023-10-24T11:34:47.347Z,18.7
2023-10-24T11:40:23.617Z,19.4
2023-10-24T11:45:59.071Z,19.9
2023-10-24T11:51:36.489Z,19.6
2023-10-24T11:57:12.189Z,19.4
2023-10-24T12:02:47.667Z,20
2023-10-24T12:08:24.672Z,18.9
2023-10-24T12:14:00.362Z,20.5
2023-10-24T12:19:37.393Z,21.1
2023-10-24T12:25:19.955Z,22.2
2023-10-24T12:30:58.623Z,22.4
2023-10-24T12:36:35.476Z,21.6
2023-10-24T12:42:11.287Z,21.7
2023-10-24T12:47:46.818Z,22.1
2023-10-24T12:53:22.779Z,22.4
2023-10-24T12:58:58.641Z,22.8
2023-10-24T13:04:34.226Z,23.4
2023-10-24T13:10:10.089Z,23.8
2023-10-24T13:15:46.046Z,22.9
2023-10-24T13:21:22.094Z,22.3
2023-10-24T13:26:57.859Z,22.3
2023-10-24T13:32:33.986Z,22.6
2023-10-24T13:38:11.944Z,22
2023-10-24T13:43:48.024Z,21.9
2023-10-24T13:49:24.062Z,22
2023-10-24T13:54:59.024Z,21.9
2023-10-24T14:00:34.356Z,21.5
2023-10-24T14:06:10.150Z,20.9
2023-10-24T14:11:46.021Z,20.4
2023-10-24T14:17:21.457Z,20.6
2023-10-24T14:22:57.249Z,20.9
2023-10-24T14:28:32.773Z,20.6
2023-10-24T14:34:09.101Z,20.6
2023-10-24T14:39:44.443Z,20.3
2023-10-24T14:45:21.237Z,20.3
2023-10-24T14:50:56.265Z,19.8
2023-10-24T14:56:31.911Z,19.2
2023-10-24T15:02:06.802Z,19.1
2023-10-24T15:07:43.045Z,19.6
2023-10-24T15:13:19.111Z,21
2023-10-24T15:18:54.424Z,20.5
2023-10-24T15:24:29.508Z,20
2023-10-24T15:30:04.797Z,19.7
2023-10-24T15:35:40.247Z,19.7
2023-10-24T15:41:15.618Z,19.6
2023-10-24T15:46:53.212Z,18.9
2023-10-24T15:52:28.809Z,19.3
2023-10-24T15:58:05.806Z,19.5
2023-10-24T16:03:42.382Z,19.1
2023-10-24T16:09:19.650Z,18.2
2023-10-24T16:14:54.588Z,17.8
2023-10-24T16:20:30.669Z,17.4
2023-10-24T16:26:05.661Z,17.1
2023-10-24T16:31:41.857Z,16.9
2023-10-24T16:37:18.728Z,16.7
2023-10-24T16:42:53.748Z,16.4
2023-10-24T16:48:29.584Z,16.3
2023-10-24T16:54:04.817Z,16.1
2023-10-24T16:59:39.920Z,16
2023-10-24T17:05:15.420Z,16
2023-10-24T17:10:51.966Z,15.8
2023-10-24T17:16:28.644Z,15.6
2023-10-24T17:22:05.928Z,15.3
2023-10-24T17:27:41.776Z,15.1
2023-10-24T17:33:17.175Z,15
2023-10-24T17:38:53.216Z,14.9
2023-10-24T17:44:28.993Z,14.8
2023-10-24T17:50:04.036Z,14.8
2023-10-24T17:55:40.621Z,14.7
2023-10-24T18:01:18.020Z,14.7
2023-10-24T18:06:53.866Z,14.6
2023-10-24T18:12:29.120Z,14.6
2023-10-24T18:18:05.609Z,14.5
2023-10-24T18:23:42.030Z,14.4
2023-10-24T18:29:17.283Z,14.6
2023-10-24T18:34:53.288Z,14.5
2023-10-24T18:40:29.502Z,14.5
2023-10-24T18:46:04.539Z,14.8
2023-10-24T18:51:41.522Z,15.3
2023-10-24T18:57:16.409Z,15.4
2023-10-24T19:02:53.858Z,15.5
2023-10-24T19:08:29.877Z,15.6
2023-10-24T19:14:06.095Z,15.6
2023-10-24T19:19:41.795Z,15.7
2023-10-24T19:25:19.410Z,15.7
2023-10-24T19:30:57.061Z,15.8
2023-10-24T19:36:33.617Z,15.8
2023-10-24T19:42:09.548Z,15.8
2023-10-24T19:47:45.580Z,15.8
2023-10-24T19:53:24.270Z,15.9
2023-10-24T19:59:00.785Z,15.8
2023-10-24T20:04:36.938Z,15.8
2023-10-24T20:11:02.471Z,15.9
2023-10-24T20:18:23.070Z,15.9
2023-10-24T20:23:59.256Z,16
2023-10-24T20:29:35.264Z,16
2023-10-24T20:35:12.819Z,16
2023-10-24T20:40:48.563Z,16
2023-10-24T20:46:24.947Z,16
2023-10-24T20:52:01.354Z,16
2023-10-24T20:57:38.086Z,16.1
2023-10-24T21:03:14.472Z,16.1
2023-10-24T21:08:51.003Z,16.1
2023-10-24T21:14:27.454Z,16.1
2023-10-24T21:20:03.668Z,16.1
2023-10-24T21:25:39.699Z,16
2023-10-24T21:31:16.029Z,16
2023-10-24T21:36:53.037Z,16
2023-10-24T21:42:30.527Z,16
2023-10-24T21:48:07.287Z,16.1
2023-10-24T21:53:43.680Z,16.1
2023-10-24T21:59:27.288Z,16.2
2023-10-24T22:05:03.301Z,16.2
2023-10-24T22:10:38.875Z,16.2
2023-10-24T22:16:15.304Z,16.1
2023-10-24T22:21:53.008Z,16
2023-10-24T22:27:29.636Z,15.9
2023-10-24T22:33:05.661Z,15.8
2023-10-24T22:38:43.169Z,15.8
2023-10-24T22:44:19.199Z,15.8
2023-10-24T22:49:56.428Z,15.8
2023-10-24T22:55:33.360Z,15.9
2023-10-24T23:01:09.625Z,15.9
2023-10-24T23:06:47.047Z,15.8
2023-10-24T23:12:23.589Z,15.7
2023-10-24T23:17:59.883Z,15.6
2023-10-24T23:23:36.690Z,15.7
2023-10-24T23:29:13.170Z,15.7
2023-10-24T23:34:49.330Z,15.7
2023-10-24T23:40:25.466Z,15.7
2023-10-24T23:46:01.644Z,15.7
2023-10-24T23:51:37.801Z,15.8
2023-10-24T23:57:15.707Z,15.7
